createdAt,value
2023-08-15T00:00:33.506Z,38.87
2023-08-15T00:03:19.435Z,39.13
2023-08-15T00:06:05.304Z,39.09
2023-08-15T00:08:55.706Z,39.20
2023-08-15T00:11:41.967Z,39.25
2023-08-15T00:14:27.867Z,39.52
2023-08-15T00:17:13.968Z,39.46
2023-08-15T00:19:59.732Z,39.46
2023-08-15T00:22:45.598Z,39.68
2023-08-15T00:25:31.937Z,39.78
2023-08-15T00:28:21.966Z,39.73
2023-08-15T00:31:08.124Z,39.68
2023-08-15T00:33:54.375Z,39.71
2023-08-15T00:36:40.595Z,39.85
2023-08-15T00:39:28.818Z,39.59
2023-08-15T00:42:15.184Z,39.50
2023-08-15T00:45:01.268Z,39.62
2023-08-15T00:47:48.621Z,39.73
2023-08-15T00:50:35.188Z,39.78
2023-08-15T00:53:21.200Z,39.80
2023-08-15T00:56:08.009Z,39.64
2023-08-15T00:58:53.954Z,39.81
2023-08-15T01:01:40.461Z,39.84
2023-08-15T01:04:27.782Z,39.71
2023-08-15T01:07:14.292Z,39.82
2023-08-15T01:10:01.930Z,39.91
2023-08-15T01:13:01.634Z,39.98
2023-08-15T01:15:51.300Z,40.23
2023-08-15T01:18:46.721Z,40.41
2023-08-15T01:21:36.266Z,40.40
2023-08-15T01:24:22.955Z,40.18
2023-08-15T01:27:09.166Z,40.21
2023-08-15T01:29:56.736Z,40.08
2023-08-15T01:32:42.617Z,40.00
2023-08-15T01:35:34.918Z,40.60
2023-08-15T01:38:31.469Z,40.30
2023-08-15T01:41:20.865Z,40.48
2023-08-15T01:44:08.901Z,40.29
2023-08-15T01:46:54.973Z,40.31
2023-08-15T01:49:42.119Z,40.21
2023-08-15T01:52:28.472Z,40.15
2023-08-15T01:55:14.434Z,40.35
2023-08-15T01:58:00.224Z,40.67
2023-08-15T02:00:46.607Z,40.37
2023-08-15T02:03:32.310Z,40.30
2023-08-15T02:06:18.255Z,40.02
2023-08-15T02:09:05.188Z,40.21
2023-08-15T02:11:56.224Z,40.25
2023-08-15T02:14:43.308Z,40.28
2023-08-15T02:17:29.264Z,40.14
2023-08-15T02:20:16.802Z,40.06
2023-08-15T02:23:02.987Z,40.20
2023-08-15T02:25:50.073Z,40.30
2023-08-15T02:28:37.994Z,40.12
2023-08-15T02:31:27.588Z,40.02
2023-08-15T02:34:13.490Z,39.98
2023-08-15T02:37:00.393Z,39.98
2023-08-15T02:39:46.418Z,39.99
2023-08-15T02:42:32.588Z,40.06
2023-08-15T02:45:18.354Z,40.26
2023-08-15T02:48:04.710Z,40.19
2023-08-15T02:50:50.546Z,40.03
2023-08-15T02:53:37.492Z,40.12
2023-08-15T02:56:23.567Z,40.19
2023-08-15T02:59:09.737Z,40.36
2023-08-15T03:01:56.885Z,40.52
2023-08-15T03:04:43.023Z,40.57
2023-08-15T03:07:30.169Z,40.61
2023-08-15T03:10:16.266Z,40.68
2023-08-15T03:13:02.116Z,40.67
2023-08-15T03:15:57.299Z,41.13
2023-08-15T03:18:45.068Z,40.91
2023-08-15T03:21:31.312Z,41.23
2023-08-15T03:24:17.034Z,40.77
2023-08-15T03:27:04.526Z,40.91
2023-08-15T03:29:50.615Z,41.09
2023-08-15T03:32:36.704Z,40.95
2023-08-15T03:35:23.127Z,41.05
2023-08-15T03:38:10.223Z,41.14
2023-08-15T03:41:06.466Z,40.93
2023-08-15T03:43:52.458Z,40.86
2023-08-15T03:46:38.605Z,41.02
2023-08-15T03:49:24.650Z,41.04
2023-08-15T03:52:12.101Z,40.93
2023-08-15T03:54:58.302Z,40.96
2023-08-15T03:57:45.597Z,40.98
2023-08-15T04:00:31.856Z,41.06
2023-08-15T04:03:17.847Z,41.07
2023-08-15T04:06:04.745Z,41.16
2023-08-15T04:08:50.739Z,41.29
2023-08-15T04:11:36.690Z,41.42
2023-08-15T04:14:22.539Z,41.74
2023-08-15T04:17:08.629Z,41.79
2023-08-15T04:19:54.504Z,41.80
2023-08-15T04:22:40.894Z,42.28
2023-08-15T04:25:27.490Z,42.38
2023-08-15T04:28:15.534Z,42.40
2023-08-15T04:31:02.041Z,42.63
2023-08-15T04:33:48.080Z,42.58
2023-08-15T04:36:34.085Z,42.58
2023-08-15T04:39:20.308Z,42.40
2023-08-15T04:42:06.487Z,42.45
2023-08-15T04:47:39.194Z,42.47
2023-08-15T04:50:26.170Z,42.45
2023-08-15T04:53:12.085Z,42.36
2023-08-15T04:55:59.560Z,42.45
2023-08-15T04:58:45.489Z,42.61
2023-08-15T05:01:32.504Z,42.62
2023-08-15T05:04:18.617Z,42.83
2023-08-15T05:07:04.847Z,43.01
2023-08-15T05:09:50.794Z,42.95
2023-08-15T05:12:37.852Z,42.97
2023-08-15T05:15:23.893Z,43.38
2023-08-15T05:18:18.870Z,44.88
2023-08-15T05:21:05.753Z,43.81
2023-08-15T05:23:55.776Z,43.71
2023-08-15T05:26:42.128Z,43.98
2023-08-15T05:29:28.650Z,43.93
2023-08-15T05:32:14.791Z,43.94
2023-08-15T05:35:01.570Z,43.90
2023-08-15T05:37:48.306Z,43.75
2023-08-15T05:40:37.787Z,43.87
2023-08-15T05:43:25.282Z,43.72
2023-08-15T05:46:11.125Z,44.19
2023-08-15T05:48:56.889Z,44.09
2023-08-15T05:51:43.950Z,43.77
2023-08-15T05:54:30.207Z,44.12
2023-08-15T05:57:16.213Z,43.75
2023-08-15T06:00:03.887Z,43.91
2023-08-15T06:02:59.908Z,43.97
2023-08-15T06:05:47.051Z,44.02
2023-08-15T06:08:32.710Z,44.04
2023-08-15T06:11:19.520Z,43.99
2023-08-15T06:14:05.660Z,43.88
2023-08-15T06:16:51.997Z,43.71
2023-08-15T06:19:38.124Z,43.77
2023-08-15T06:22:24.479Z,43.42
2023-08-15T06:25:18.691Z,43.45
2023-08-15T06:28:06.263Z,43.43
2023-08-15T06:30:52.764Z,43.32
2023-08-15T06:33:39.219Z,43.23
2023-08-15T06:36:25.156Z,43.01
2023-08-15T06:39:12.823Z,42.94
2023-08-15T06:41:59.178Z,42.79
2023-08-15T06:44:46.315Z,42.70
2023-08-15T06:47:32.756Z,43.10
2023-08-15T06:50:19.285Z,42.48
2023-08-15T06:53:05.626Z,42.64
2023-08-15T06:55:51.855Z,42.79
2023-08-15T06:58:38.103Z,42.71
2023-08-15T07:01:35.711Z,42.65
2023-08-15T07:04:21.912Z,42.56
2023-08-15T07:07:13.063Z,42.75
2023-08-15T07:09:59.030Z,42.83
2023-08-15T07:12:45.843Z,42.69
2023-08-15T07:15:33.877Z,42.76
2023-08-15T07:18:20.164Z,42.61
2023-08-15T07:21:06.000Z,42.58
2023-08-15T07:23:52.013Z,42.42
2023-08-15T07:26:39.712Z,42.25
2023-08-15T07:29:27.216Z,42.15
2023-08-15T07:32:13.786Z,42.06
2023-08-15T07:35:00.188Z,41.91
2023-08-15T07:37:46.249Z,41.79
2023-08-15T07:40:32.240Z,41.56
2023-08-15T07:43:18.590Z,41.47
2023-08-15T07:46:04.768Z,41.44
2023-08-15T07:48:51.966Z,41.24
2023-08-15T07:51:38.133Z,41.17
2023-08-15T07:54:24.172Z,40.93
2023-08-15T07:57:10.764Z,41.02
2023-08-15T07:59:56.993Z,41.02
2023-08-15T08:02:43.211Z,41.02
2023-08-15T08:05:31.994Z,41.03
2023-08-15T08:08:22.677Z,40.99
2023-08-15T08:11:09.248Z,40.95
2023-08-15T08:13:55.071Z,41.07
2023-08-15T08:16:41.205Z,40.82
2023-08-15T08:19:27.581Z,40.74
2023-08-15T08:22:14.884Z,40.58
2023-08-15T08:25:11.851Z,40.58
2023-08-15T08:27:57.879Z,40.69
2023-08-15T08:30:45.372Z,40.42
2023-08-15T08:33:31.540Z,40.54
2023-08-15T08:36:17.706Z,40.68
2023-08-15T08:39:04.914Z,40.40
2023-08-15T08:41:52.411Z,40.39
2023-08-15T08:44:38.474Z,40.53
2023-08-15T08:47:27.918Z,40.21
2023-08-15T08:50:14.319Z,40.49
2023-08-15T08:53:00.428Z,40.32
2023-08-15T08:55:48.752Z,40.38
2023-08-15T08:58:36.822Z,39.83
2023-08-15T09:01:23.436Z,40.11
2023-08-15T09:04:09.621Z,39.81
2023-08-15T09:06:55.855Z,40.16
2023-08-15T09:09:43.102Z,39.94
2023-08-15T09:12:39.758Z,39.91
2023-08-15T09:15:25.915Z,39.63
2023-08-15T09:18:13.064Z,39.75
2023-08-15T09:21:00.073Z,39.56
2023-08-15T09:23:46.127Z,39.68
2023-08-15T09:26:36.489Z,39.62
2023-08-15T09:29:23.342Z,39.43
2023-08-15T09:32:10.896Z,39.30
2023-08-15T09:34:56.692Z,39.37
2023-08-15T09:37:48.256Z,39.43
2023-08-15T09:40:34.236Z,39.15
2023-08-15T09:43:21.032Z,39.42
2023-08-15T09:46:07.264Z,39.18
2023-08-15T09:48:53.798Z,39.25
2023-08-15T09:51:39.670Z,39.09
2023-08-15T09:54:26.128Z,38.61
2023-08-15T09:57:12.129Z,38.68
2023-08-15T09:59:58.448Z,38.28
2023-08-15T10:02:49.583Z,38.25
2023-08-15T10:05:37.827Z,37.99
2023-08-15T10:08:24.946Z,37.73
2023-08-15T10:11:12.537Z,37.75
2023-08-15T10:13:59.038Z,37.54
2023-08-15T10:16:45.294Z,37.36
2023-08-15T10:19:33.993Z,37.17
2023-08-15T10:22:21.019Z,37.43
2023-08-15T10:25:28.973Z,36.72
2023-08-15T10:28:15.091Z,37.00
2023-08-15T10:31:01.388Z,36.94
2023-08-15T10:33:47.532Z,36.69
2023-08-15T10:36:33.922Z,36.42
2023-08-15T10:39:19.809Z,36.18
2023-08-15T10:42:05.579Z,36.14
2023-08-15T10:45:01.625Z,35.86
2023-08-15T10:47:47.412Z,36.23
2023-08-15T10:50:34.158Z,36.06
2023-08-15T10:53:19.979Z,36.08
2023-08-15T10:56:06.114Z,35.92
2023-08-15T10:58:52.384Z,35.92
2023-08-15T11:01:38.968Z,35.85
2023-08-15T11:04:25.978Z,35.51
2023-08-15T11:07:11.866Z,35.28
2023-08-15T11:09:57.837Z,34.96
2023-08-15T11:12:50.857Z,34.45
2023-08-15T11:15:41.223Z,34.74
2023-08-15T11:18:27.367Z,34.45
2023-08-15T11:21:14.603Z,34.69
2023-08-15T11:24:01.664Z,34.09
2023-08-15T11:26:49.196Z,34.01
2023-08-15T11:29:35.272Z,33.91
2023-08-15T11:32:24.663Z,33.23
2023-08-15T11:35:11.570Z,33.61
2023-08-15T11:37:57.578Z,33.30
2023-08-15T11:40:44.972Z,33.33
2023-08-15T11:43:31.344Z,33.28
2023-08-15T11:46:17.505Z,32.95
2023-08-15T11:49:03.962Z,32.68
2023-08-15T11:51:50.478Z,32.29
2023-08-15T11:54:36.735Z,32.53
2023-08-15T11:57:38.508Z,31.98
2023-08-15T12:00:24.686Z,32.28
2023-08-15T12:03:11.049Z,31.93
2023-08-15T12:05:58.706Z,31.58
2023-08-15T12:08:46.562Z,30.73
2023-08-15T12:11:35.685Z,30.70
2023-08-15T12:14:22.802Z,30.40
2023-08-15T12:17:09.819Z,30.29
2023-08-15T12:19:55.897Z,30.23
2023-08-15T12:22:46.043Z,30.27
2023-08-15T12:25:31.943Z,30.32
2023-08-15T12:28:19.800Z,30.18
2023-08-15T12:31:06.033Z,30.25
2023-08-15T12:33:52.293Z,30.57
2023-08-15T12:36:38.324Z,30.51
2023-08-15T12:39:25.268Z,30.36
2023-08-15T12:42:13.354Z,30.75
2023-08-15T12:44:59.383Z,30.82
2023-08-15T12:47:45.426Z,31.07
2023-08-15T12:50:31.437Z,31.34
2023-08-15T12:53:17.340Z,31.46
2023-08-15T12:56:03.784Z,31.89
2023-08-15T12:58:49.588Z,31.94
2023-08-15T13:01:37.131Z,32.42
2023-08-15T13:04:27.122Z,32.87
2023-08-15T13:07:13.192Z,32.79
2023-08-15T13:09:59.995Z,32.92
2023-08-15T13:12:45.953Z,32.83
2023-08-15T13:15:32.230Z,32.71
2023-08-15T13:18:18.099Z,32.93
2023-08-15T13:21:04.423Z,32.94
2023-08-15T13:23:50.588Z,32.98
2023-08-15T13:26:36.525Z,33.21
2023-08-15T13:29:22.811Z,33.07
2023-08-15T13:32:09.390Z,33.02
2023-08-15T13:34:56.267Z,33.24
2023-08-15T13:37:43.183Z,33.51
2023-08-15T13:40:30.008Z,33.48
2023-08-15T13:43:16.148Z,33.14
2023-08-15T13:46:09.144Z,33.21
2023-08-15T13:48:55.544Z,33.20
2023-08-15T13:51:43.196Z,32.98
2023-08-15T13:54:30.298Z,33.10
2023-08-15T13:57:16.333Z,32.82
2023-08-15T14:00:03.218Z,32.74
2023-08-15T14:02:50.738Z,32.80
2023-08-15T14:05:37.244Z,33.07
2023-08-15T14:08:23.902Z,33.24
2023-08-15T14:11:09.879Z,33.15
2023-08-15T14:13:55.890Z,33.10
2023-08-15T14:16:41.965Z,32.48
2023-08-15T14:19:28.031Z,32.27
2023-08-15T14:22:14.920Z,30.29
2023-08-15T14:25:01.539Z,28.22
2023-08-15T14:27:48.749Z,27.26
2023-08-15T14:30:34.773Z,26.44
2023-08-15T14:33:21.031Z,24.94
2023-08-15T14:36:07.657Z,24.40
2023-08-15T14:38:54.783Z,22.76
2023-08-15T14:41:40.707Z,21.88
2023-08-15T14:44:26.895Z,20.75
2023-08-15T14:47:15.495Z,20.20
2023-08-15T14:50:03.997Z,20.34
2023-08-15T14:52:49.824Z,20.46
2023-08-15T14:55:35.744Z,20.49
2023-08-15T14:58:21.782Z,19.36
2023-08-15T15:01:08.789Z,19.10
2023-08-15T15:03:57.048Z,19.46
2023-08-15T15:06:42.973Z,19.93
2023-08-15T15:09:29.037Z,20.21
2023-08-15T15:12:14.941Z,20.93
2023-08-15T15:15:04.760Z,21.61
2023-08-15T15:17:50.781Z,22.13
2023-08-15T15:20:36.879Z,23.05
2023-08-15T15:23:23.069Z,23.84
2023-08-15T15:26:11.128Z,24.19
2023-08-15T15:28:57.611Z,25.07
2023-08-15T15:31:45.866Z,25.82
2023-08-15T15:34:34.217Z,26.46
2023-08-15T15:37:21.267Z,26.71
2023-08-15T15:40:08.545Z,27.12
2023-08-15T15:42:54.606Z,27.55
2023-08-15T15:45:40.968Z,27.96
2023-08-15T15:48:28.177Z,28.34
2023-08-15T15:51:14.460Z,28.47
2023-08-15T15:54:00.824Z,28.90
2023-08-15T15:56:47.776Z,29.07
2023-08-15T15:59:34.031Z,28.80
2023-08-15T16:02:20.375Z,29.23
2023-08-15T16:05:07.134Z,29.38
2023-08-15T16:07:53.676Z,29.38
2023-08-15T16:10:39.486Z,29.65
2023-08-15T16:13:26.639Z,30.01
2023-08-15T16:16:13.694Z,30.33
2023-08-15T16:18:59.651Z,30.33
2023-08-15T16:21:45.562Z,30.53
2023-08-15T16:24:31.723Z,30.45
2023-08-15T16:27:17.766Z,30.76
2023-08-15T16:30:16.259Z,30.97
2023-08-15T16:33:04.573Z,31.06
2023-08-15T16:35:50.912Z,31.21
2023-08-15T16:38:36.903Z,31.21
2023-08-15T16:41:22.701Z,31.69
2023-08-15T16:44:09.939Z,31.65
2023-08-15T16:46:56.243Z,31.88
2023-08-15T16:49:45.599Z,32.26
2023-08-15T16:52:32.802Z,32.10
2023-08-15T16:55:19.025Z,32.35
2023-08-15T16:58:13.750Z,32.83
2023-08-15T17:00:59.974Z,32.55
2023-08-15T17:03:45.902Z,32.92
2023-08-15T17:06:33.106Z,33.17
2023-08-15T17:09:19.292Z,32.84
2023-08-15T17:12:07.136Z,33.32
2023-08-15T17:14:56.111Z,33.22
2023-08-15T17:17:43.846Z,33.37
2023-08-15T17:20:29.802Z,33.51
2023-08-15T17:23:15.891Z,33.47
2023-08-15T17:26:01.732Z,34.02
2023-08-15T17:28:48.377Z,34.21
2023-08-15T17:31:34.378Z,34.30
2023-08-15T17:34:21.367Z,34.11
2023-08-15T17:37:07.246Z,34.63
2023-08-15T17:39:53.359Z,34.51
2023-08-15T17:42:39.802Z,34.36
2023-08-15T17:45:25.786Z,34.91
2023-08-15T17:48:11.873Z,35.07
2023-08-15T17:50:58.257Z,35.19
2023-08-15T17:53:44.576Z,35.22
2023-08-15T17:56:32.007Z,35.17
2023-08-15T17:59:18.351Z,35.61
2023-08-15T18:02:04.914Z,35.98
2023-08-15T18:04:51.232Z,36.05
2023-08-15T18:07:37.443Z,36.25
2023-08-15T18:10:23.660Z,36.42
2023-08-15T18:13:09.683Z,36.61
2023-08-15T18:15:55.803Z,36.90
2023-08-15T18:18:42.025Z,36.86
2023-08-15T18:21:34.938Z,37.23
2023-08-15T18:24:20.753Z,37.14
2023-08-15T18:27:07.510Z,37.31
2023-08-15T18:29:53.549Z,37.64
2023-08-15T18:32:40.194Z,37.78
2023-08-15T18:35:26.162Z,37.96
2023-08-15T18:38:13.032Z,37.92
2023-08-15T18:40:59.948Z,38.23
2023-08-15T18:43:45.979Z,38.10
2023-08-15T18:46:32.242Z,38.20
2023-08-15T18:49:19.382Z,38.69
2023-08-15T18:52:05.603Z,38.36
2023-08-15T18:54:52.021Z,38.80
2023-08-15T18:57:38.074Z,38.68
2023-08-15T19:00:23.812Z,38.93
2023-08-15T19:03:11.310Z,39.06
2023-08-15T19:05:58.069Z,39.27
2023-08-15T19:08:44.162Z,39.18
2023-08-15T19:11:31.567Z,39.43
2023-08-15T19:14:17.636Z,39.70
2023-08-15T19:17:03.970Z,39.60
2023-08-15T19:19:49.935Z,39.67
2023-08-15T19:22:36.278Z,39.94
2023-08-15T19:25:23.581Z,40.03
2023-08-15T19:28:09.686Z,40.14
2023-08-15T19:30:56.045Z,40.15
2023-08-15T19:33:42.630Z,40.09
2023-08-15T19:36:29.021Z,40.30
2023-08-15T19:39:15.111Z,40.37
2023-08-15T19:42:01.248Z,40.44
2023-08-15T19:44:48.466Z,40.60
2023-08-15T19:47:34.725Z,40.56
2023-08-15T19:50:20.903Z,40.56
2023-08-15T19:53:07.840Z,40.80
2023-08-15T19:55:54.029Z,40.99
2023-08-15T19:58:40.332Z,41.08
2023-08-15T20:01:26.295Z,41.07
2023-08-15T20:04:12.541Z,41.10
2023-08-15T20:06:59.022Z,41.21
2023-08-15T20:09:55.063Z,41.43
2023-08-15T20:12:42.157Z,41.37
2023-08-15T20:15:28.477Z,41.54
2023-08-15T20:18:15.062Z,41.80
2023-08-15T20:21:02.015Z,41.77
2023-08-15T20:23:47.868Z,41.98
2023-08-15T20:26:33.948Z,42.04
2023-08-15T20:29:20.102Z,42.11
2023-08-15T20:32:08.668Z,42.25
2023-08-15T20:34:54.985Z,42.42
2023-08-15T20:37:41.512Z,42.42
2023-08-15T20:40:27.603Z,42.37
2023-08-15T20:43:15.059Z,42.65
2023-08-15T20:46:00.950Z,42.53
2023-08-15T20:48:47.074Z,42.74
2023-08-15T20:51:33.227Z,42.88
2023-08-15T20:54:25.817Z,42.98
2023-08-15T20:57:14.347Z,42.96
2023-08-15T21:00:00.236Z,43.11
2023-08-15T21:02:46.487Z,43.27
2023-08-15T21:05:32.508Z,43.46
2023-08-15T21:08:18.329Z,43.54
2023-08-15T21:11:04.651Z,43.62
2023-08-15T21:13:55.328Z,43.75
2023-08-15T21:16:41.493Z,43.77
2023-08-15T21:19:29.276Z,43.95
2023-08-15T21:22:16.709Z,43.86
2023-08-15T21:25:04.273Z,44.10
2023-08-15T21:27:51.071Z,44.06
2023-08-15T21:30:38.099Z,44.13
2023-08-15T21:33:25.281Z,44.26
2023-08-15T21:36:11.518Z,44.43
2023-08-15T21:38:58.185Z,44.42
2023-08-15T21:41:45.072Z,44.50
2023-08-15T21:44:33.423Z,44.54
2023-08-15T21:47:20.077Z,44.80
2023-08-15T21:50:07.947Z,44.63
2023-08-15T21:52:53.798Z,44.79
2023-08-15T21:55:39.730Z,44.80
2023-08-15T21:58:25.641Z,44.91
2023-08-15T22:01:11.398Z,45.09
2023-08-15T22:03:57.345Z,45.09
2023-08-15T22:06:43.188Z,45.36
2023-08-15T22:09:28.979Z,45.18
2023-08-15T22:12:14.815Z,45.52
2023-08-15T22:15:01.829Z,45.72
2023-08-15T22:17:54.496Z,45.72
2023-08-15T22:20:47.910Z,46.08
2023-08-15T22:23:33.945Z,46.20
2023-08-15T22:26:20.043Z,46.28
2023-08-15T22:29:05.892Z,46.09
2023-08-15T22:31:51.929Z,46.04
2023-08-15T22:34:39.478Z,46.37
2023-08-15T22:37:25.479Z,46.46
2023-08-15T22:40:12.844Z,46.55
2023-08-15T22:42:59.928Z,46.35
2023-08-15T22:45:46.854Z,46.61
2023-08-15T22:48:32.852Z,46.57
2023-08-15T22:51:18.757Z,46.56
2023-08-15T22:54:05.052Z,46.72
2023-08-15T22:56:51.002Z,46.51
2023-08-15T22:59:37.334Z,46.77
2023-08-15T23:02:23.514Z,46.77
2023-08-15T23:05:10.184Z,46.59
2023-08-15T23:07:55.977Z,46.96
2023-08-15T23:10:41.823Z,46.89
2023-08-15T23:13:28.000Z,47.10
2023-08-15T23:16:14.859Z,47.11
2023-08-15T23:19:00.652Z,46.90
2023-08-15T23:21:46.702Z,47.23
2023-08-15T23:24:32.815Z,47.12
2023-08-15T23:27:18.973Z,47.33
2023-08-15T23:30:06.145Z,47.50
2023-08-15T23:32:52.260Z,47.39
2023-08-15T23:35:38.300Z,47.41
2023-08-15T23:38:24.310Z,47.44
2023-08-15T23:41:10.567Z,47.69
2023-08-15T23:43:59.546Z,47.84
2023-08-15T23:46:49.127Z,47.79
2023-08-15T23:49:35.207Z,48.07
2023-08-15T23:52:21.865Z,47.85
2023-08-15T23:55:08.136Z,48.32
2023-08-15T23:57:54.245Z,48.23
